sensor_id;sensor_type;location;lat;lon;timestamp;noise_LAeq;noise_LA_min;noise_LA_max;noise_LA01;noise_LA95
61249;Laerm;47119;49.130;9.218;2022-11-27T00:02:13;44.19;31.53;56.29;;
61249;Laerm;47119;49.130;9.218;2022-11-27T00:05:59;44.33;31.50;55.56;;
61249;Laerm;47119;49.130;9.218;2022-11-27T00:34:16;45.82;30.18;64.87;;
61249;Laerm;47119;49.130;9.218;2022-11-27T00:36:35;46.43;29.54;63.98;;
61249;Laerm;47119;49.130;9.218;2022-11-27T01:13:44;40.99;28.73;52.84;;
61249;Laerm;47119;49.130;9.218;2022-11-27T01:18:40;46.51;28.93;65.83;;
61249;Laerm;47119;49.130;9.218;2022-11-27T01:20:57;40.99;28.77;52.89;;
61249;Laerm;47119;49.130;9.218;2022-11-27T02:01:40;49.80;28.42;68.84;;
61249;Laerm;47119;49.130;9.218;2022-11-27T02:12:04;55.93;29.86;82.55;;
61249;Laerm;47119;49.130;9.218;2022-11-27T02:16:04;49.60;30.66;68.97;;
61249;Laerm;47119;49.130;9.218;2022-11-27T03:00:34;41.21;28.94;60.44;;
61249;Laerm;47119;49.130;9.218;2022-11-27T03:03:51;44.11;28.83;65.31;;
61249;Laerm;47119;49.130;9.218;2022-11-27T03:07:34;40.78;28.24;62.27;;
61249;Laerm;47119;49.130;9.218;2022-11-27T03:11:13;35.90;28.85;47.57;;
61249;Laerm;47119;49.130;9.218;2022-11-27T03:14:46;43.85;27.86;59.55;;
61249;Laerm;47119;49.130;9.218;2022-11-27T03:21:59;39.18;28.92;52.98;;
61249;Laerm;47119;49.130;9.218;2022-11-27T03:25:14;40.25;29.04;57.53;;
61249;Laerm;47119;49.130;9.218;2022-11-27T03:28:30;43.95;28.20;62.91;;
61249;Laerm;47119;49.130;9.218;2022-11-27T03:36:59;37.78;27.84;50.88;;
61249;Laerm;47119;49.130;9.218;2022-11-27T04:01:28;42.74;28.80;62.23;;
61249;Laerm;47119;49.130;9.218;2022-11-27T04:04:24;44.52;29.10;65.28;;
61249;Laerm;47119;49.130;9.218;2022-11-27T04:07:16;34.52;28.79;42.41;;
61249;Laerm;47119;49.130;9.218;2022-11-27T04:10:13;39.95;29.64;51.80;;
61249;Laerm;47119;49.130;9.218;2022-11-27T04:13:16;43.15;28.74;63.49;;
61249;Laerm;47119;49.130;9.218;2022-11-27T04:16:30;40.94;28.42;58.11;;
61249;Laerm;47119;49.130;9.218;2022-11-27T04:19:35;42.37;28.95;60.70;;
61249;Laerm;47119;49.130;9.218;2022-11-27T04:22:28;45.46;30.20;64.48;;
61249;Laerm;47119;49.130;9.218;2022-11-27T04:25:29;39.18;28.38;51.78;;
61249;Laerm;47119;49.130;9.218;2022-11-27T04:28:25;43.20;29.56;60.50;;
61249;Laerm;47119;49.130;9.218;2022-11-27T04:31:44;39.52;28.16;51.67;;
61249;Laerm;47119;49.130;9.218;2022-11-27T04:35:14;44.88;31.85;62.61;;
61249;Laerm;47119;49.130;9.218;2022-11-27T04:38:26;44.88;29.03;64.37;;
61249;Laerm;47119;49.130;9.218;2022-11-27T14:35:25;51.02;36.07;65.62;;
61249;Laerm;47119;49.130;9.218;2022-11-27T14:38:06;51.04;36.31;67.08;;
61249;Laerm;47119;49.130;9.218;2022-11-27T14:40:34;54.96;40.44;74.10;;
61249;Laerm;47119;49.130;9.218;2022-11-27T14:43:09;51.89;37.97;65.56;;
61249;Laerm;47119;49.130;9.218;2022-11-27T14:45:45;52.90;39.44;68.78;;
61249;Laerm;47119;49.130;9.218;2022-11-27T14:48:20;52.31;39.71;65.23;;
61249;Laerm;47119;49.130;9.218;2022-11-27T14:50:57;49.40;35.53;68.31;;
61249;Laerm;47119;49.130;9.218;2022-11-27T14:53:29;55.30;36.82;81.11;;
61249;Laerm;47119;49.130;9.218;2022-11-27T14:55:58;47.21;36.35;59.68;;
61249;Laerm;47119;49.130;9.218;2022-11-27T14:58:29;52.74;40.07;69.45;;
61249;Laerm;47119;49.130;9.218;2022-11-27T15:01:00;52.24;40.35;66.59;;
61249;Laerm;47119;49.130;9.218;2022-11-27T15:03:39;50.43;37.65;64.04;;
61249;Laerm;47119;49.130;9.218;2022-11-27T15:06:51;51.39;37.29;67.66;;
61249;Laerm;47119;49.130;9.218;2022-11-27T15:09:26;51.86;39.15;70.05;;
61249;Laerm;47119;49.130;9.218;2022-11-27T15:12:04;53.29;41.86;66.34;;
61249;Laerm;47119;49.130;9.218;2022-11-27T15:15:21;49.33;39.94;64.90;;
61249;Laerm;47119;49.130;9.218;2022-11-27T15:18:20;51.09;37.03;67.49;;
61249;Laerm;47119;49.130;9.218;2022-11-27T15:20:54;51.46;36.25;64.88;;
61249;Laerm;47119;49.130;9.218;2022-11-27T15:23:28;48.02;39.72;58.60;;
61249;Laerm;47119;49.130;9.218;2022-11-27T15:26:09;51.38;38.43;64.51;;
61249;Laerm;47119;49.130;9.218;2022-11-27T15:28:55;51.94;40.00;72.70;;
61249;Laerm;47119;49.130;9.218;2022-11-27T15:31:28;51.49;37.14;70.84;;
61249;Laerm;47119;49.130;9.218;2022-11-27T15:34:01;52.50;41.42;66.87;;
61249;Laerm;47119;49.130;9.218;2022-11-27T15:36:47;52.01;37.83;64.65;;
61249;Laerm;47119;49.130;9.218;2022-11-27T15:39:35;50.75;38.35;63.50;;
61249;Laerm;47119;49.130;9.218;2022-11-27T15:42:09;53.45;41.49;65.99;;
61249;Laerm;47119;49.130;9.218;2022-11-27T15:44:37;54.00;43.11;69.50;;
61249;Laerm;47119;49.130;9.218;2022-11-27T15:47:26;53.75;42.59;64.78;;
61249;Laerm;47119;49.130;9.218;2022-11-27T15:50:14;52.98;36.32;72.50;;
61249;Laerm;47119;49.130;9.218;2022-11-27T15:52:49;55.18;38.26;68.39;;
61249;Laerm;47119;49.130;9.218;2022-11-27T15:56:21;51.98;34.88;72.97;;
61249;Laerm;47119;49.130;9.218;2022-11-27T15:59:24;53.65;39.11;68.96;;
61249;Laerm;47119;49.130;9.218;2022-11-27T16:01:55;52.38;39.61;62.93;;
61249;Laerm;47119;49.130;9.218;2022-11-27T16:04:36;51.38;39.35;64.69;;
61249;Laerm;47119;49.130;9.218;2022-11-27T16:07:05;52.35;39.11;70.31;;
61249;Laerm;47119;49.130;9.218;2022-11-27T16:09:40;52.32;38.60;65.15;;
61249;Laerm;47119;49.130;9.218;2022-11-27T16:12:09;52.83;35.76;70.54;;
61249;Laerm;47119;49.130;9.218;2022-11-27T16:14:40;50.52;37.68;62.26;;
61249;Laerm;47119;49.130;9.218;2022-11-27T16:17:08;51.38;40.03;65.57;;
61249;Laerm;47119;49.130;9.218;2022-11-27T16:19:40;51.90;39.98;65.67;;
61249;Laerm;47119;49.130;9.218;2022-11-27T16:22:18;51.38;36.39;65.22;;
61249;Laerm;47119;49.130;9.218;2022-11-27T16:24:46;51.49;39.17;63.15;;
61249;Laerm;47119;49.130;9.218;2022-11-27T16:27:24;53.68;38.97;65.04;;
61249;Laerm;47119;49.130;9.218;2022-11-27T16:29:55;52.61;41.66;62.91;;
61249;Laerm;47119;49.130;9.218;2022-11-27T16:32:25;53.02;41.64;65.32;;
61249;Laerm;47119;49.130;9.218;2022-11-27T16:34:54;51.77;37.36;64.88;;
61249;Laerm;47119;49.130;9.218;2022-11-27T16:37:24;52.67;38.98;64.72;;
61249;Laerm;47119;49.130;9.218;2022-11-27T16:40:03;48.92;37.92;63.90;;
61249;Laerm;47119;49.130;9.218;2022-11-27T17:32:14;52.82;38.89;69.45;;
61249;Laerm;47119;49.130;9.218;2022-11-27T17:34:47;52.58;37.89;68.43;;
61249;Laerm;47119;49.130;9.218;2022-11-27T17:37:22;51.48;37.64;63.43;;
61249;Laerm;47119;49.130;9.218;2022-11-27T17:39:50;50.01;35.46;67.02;;
61249;Laerm;47119;49.130;9.218;2022-11-27T17:42:26;49.39;36.13;61.60;;
61249;Laerm;47119;49.130;9.218;2022-11-27T17:44:54;53.42;34.74;71.87;;
61249;Laerm;47119;49.130;9.218;2022-11-27T17:47:23;51.99;38.01;63.44;;
61249;Laerm;47119;49.130;9.218;2022-11-27T17:50:01;50.42;39.56;65.70;;
61249;Laerm;47119;49.130;9.218;2022-11-27T17:52:31;52.03;36.06;65.53;;
61249;Laerm;47119;49.130;9.218;2022-11-27T17:55:06;52.70;40.01;66.92;;
61249;Laerm;47119;49.130;9.218;2022-11-27T17:57:40;51.45;36.86;63.77;;
61249;Laerm;47119;49.130;9.218;2022-11-27T18:00:10;52.56;39.45;64.85;;
61249;Laerm;47119;49.130;9.218;2022-11-27T18:02:46;50.92;37.45;66.83;;
61249;Laerm;47119;49.130;9.218;2022-11-27T18:05:20;53.28;37.38;75.34;;
61249;Laerm;47119;49.130;9.218;2022-11-27T18:07:48;52.38;37.64;65.50;;
61249;Laerm;47119;49.130;9.218;2022-11-27T18:10:19;49.22;37.02;66.14;;
61249;Laerm;47119;49.130;9.218;2022-11-27T18:12:47;49.67;36.24;63.05;;
61249;Laerm;47119;49.130;9.218;2022-11-27T18:15:15;50.72;37.54;66.28;;
61249;Laerm;47119;49.130;9.218;2022-11-27T18:18:05;51.43;33.22;69.02;;
61249;Laerm;47119;49.130;9.218;2022-11-27T18:21:06;52.39;38.98;68.08;;
61249;Laerm;47119;49.130;9.218;2022-11-27T18:23:48;50.93;37.94;67.00;;
61249;Laerm;47119;49.130;9.218;2022-11-27T18:26:56;48.97;35.19;62.79;;
61249;Laerm;47119;49.130;9.218;2022-11-27T18:29:27;53.90;37.00;69.05;;
61249;Laerm;47119;49.130;9.218;2022-11-27T18:32:03;48.71;36.88;63.64;;
61249;Laerm;47119;49.130;9.218;2022-11-27T18:34:37;52.86;38.39;66.94;;
61249;Laerm;47119;49.130;9.218;2022-11-27T18:37:10;50.90;38.45;65.20;;
61249;Laerm;47119;49.130;9.218;2022-11-27T18:39:43;51.68;38.94;67.95;;
61249;Laerm;47119;49.130;9.218;2022-11-27T18:49:51;51.97;34.16;67.62;;
61249;Laerm;47119;49.130;9.218;2022-11-27T18:58:16;48.95;36.38;71.67;;
61249;Laerm;47119;49.130;9.218;2022-11-27T19:05:47;51.30;32.72;69.87;;
61249;Laerm;47119;49.130;9.218;2022-11-27T19:08:38;45.14;34.66;64.33;;
61249;Laerm;47119;49.130;9.218;2022-11-27T19:11:44;52.45;36.43;67.18;;
61249;Laerm;47119;49.130;9.218;2022-11-27T19:14:16;54.98;34.89;72.47;;
61249;Laerm;47119;49.130;9.218;2022-11-27T19:16:55;51.25;35.94;66.21;;
61249;Laerm;47119;49.130;9.218;2022-11-27T19:19:44;50.71;37.71;66.53;;
61249;Laerm;47119;49.130;9.218;2022-11-27T19:23:12;47.42;33.42;63.05;;
61249;Laerm;47119;49.130;9.218;2022-11-27T19:25:47;49.48;36.39;64.57;;
61249;Laerm;47119;49.130;9.218;2022-11-27T19:29:03;50.69;30.88;71.19;;
61249;Laerm;47119;49.130;9.218;2022-11-27T19:31:46;51.57;35.90;66.45;;
61249;Laerm;47119;49.130;9.218;2022-11-27T19:34:57;48.77;34.15;65.52;;
61249;Laerm;47119;49.130;9.218;2022-11-27T19:37:50;47.28;36.19;63.20;;
61249;Laerm;47119;49.130;9.218;2022-11-27T19:40:30;55.48;33.13;80.91;;
61249;Laerm;47119;49.130;9.218;2022-11-27T19:43:22;48.27;34.49;63.28;;
61249;Laerm;47119;49.130;9.218;2022-11-27T19:45:49;46.35;32.73;62.67;;
61249;Laerm;47119;49.130;9.218;2022-11-27T19:48:30;49.11;36.17;60.13;;
61249;Laerm;47119;49.130;9.218;2022-11-27T19:51:03;48.06;34.61;64.06;;
61249;Laerm;47119;49.130;9.218;2022-11-27T19:53:43;49.37;32.58;64.57;;
61249;Laerm;47119;49.130;9.218;2022-11-27T19:56:15;60.08;36.08;92.24;;
61249;Laerm;47119;49.130;9.218;2022-11-27T19:58:50;50.37;34.14;67.41;;
61249;Laerm;47119;49.130;9.218;2022-11-27T20:01:18;43.42;30.60;57.40;;
61249;Laerm;47119;49.130;9.218;2022-11-27T20:03:51;47.92;32.47;66.12;;
61249;Laerm;47119;49.130;9.218;2022-11-27T20:06:25;46.56;36.78;58.65;;
61249;Laerm;47119;49.130;9.218;2022-11-27T20:08:57;47.06;32.96;63.73;;
61249;Laerm;47119;49.130;9.218;2022-11-27T20:11:29;50.00;36.23;63.85;;
61249;Laerm;47119;49.130;9.218;2022-11-27T20:13:58;49.68;32.69;63.53;;
61249;Laerm;47119;49.130;9.218;2022-11-27T20:16:35;47.22;31.48;61.39;;
61249;Laerm;47119;49.130;9.218;2022-11-27T20:19:16;48.01;32.37;66.10;;
61249;Laerm;47119;49.130;9.218;2022-11-27T20:22:18;46.02;33.99;62.51;;
61249;Laerm;47119;49.130;9.218;2022-11-27T20:24:53;48.81;33.58;64.17;;
61249;Laerm;47119;49.130;9.218;2022-11-27T20:27:22;52.89;32.03;81.03;;
61249;Laerm;47119;49.130;9.218;2022-11-27T20:29:57;47.26;32.19;66.57;;
61249;Laerm;47119;49.130;9.218;2022-11-27T20:32:29;48.92;33.29;72.31;;
61249;Laerm;47119;49.130;9.218;2022-11-27T20:35:03;46.38;31.40;61.60;;
61249;Laerm;47119;49.130;9.218;2022-11-27T20:38:12;47.50;32.52;63.11;;
61249;Laerm;47119;49.130;9.218;2022-11-27T20:40:40;46.52;35.22;62.09;;
61249;Laerm;47119;49.130;9.218;2022-11-27T20:43:12;45.54;32.06;61.92;;
61249;Laerm;47119;49.130;9.218;2022-11-27T20:45:53;46.78;33.03;63.67;;
61249;Laerm;47119;49.130;9.218;2022-11-27T20:48:28;44.63;33.19;59.08;;
61249;Laerm;47119;49.130;9.218;2022-11-27T20:51:04;46.29;34.02;58.59;;
61249;Laerm;47119;49.130;9.218;2022-11-27T20:53:36;43.82;32.46;57.36;;
61249;Laerm;47119;49.130;9.218;2022-11-27T20:56:07;45.57;30.99;58.97;;
61249;Laerm;47119;49.130;9.218;2022-11-27T20:58:40;46.00;30.54;60.71;;
61249;Laerm;47119;49.130;9.218;2022-11-27T21:01:14;47.25;32.22;67.24;;
61249;Laerm;47119;49.130;9.218;2022-11-27T21:03:46;52.76;33.30;72.20;;
61249;Laerm;47119;49.130;9.218;2022-11-27T21:06:23;52.09;41.23;63.51;;
61249;Laerm;47119;49.130;9.218;2022-11-27T21:08:52;45.27;32.69;58.97;;
61249;Laerm;47119;49.130;9.218;2022-11-27T21:11:27;46.90;34.24;62.64;;
61249;Laerm;47119;49.130;9.218;2022-11-27T21:14:13;49.19;33.42;64.39;;
61249;Laerm;47119;49.130;9.218;2022-11-27T21:16:56;49.74;33.02;67.58;;
61249;Laerm;47119;49.130;9.218;2022-11-27T21:19:56;46.61;31.33;61.59;;
61249;Laerm;47119;49.130;9.218;2022-11-27T21:22:32;46.65;32.86;60.94;;
61249;Laerm;47119;49.130;9.218;2022-11-27T21:24:59;44.38;31.05;57.80;;
61249;Laerm;47119;49.130;9.218;2022-11-27T21:27:30;50.63;31.62;71.03;;
61249;Laerm;47119;49.130;9.218;2022-11-27T21:30:35;46.22;29.90;61.98;;
61249;Laerm;47119;49.130;9.218;2022-11-27T21:33:18;49.82;33.06;63.48;;
61249;Laerm;47119;49.130;9.218;2022-11-27T21:35:46;45.11;30.82;59.35;;
61249;Laerm;47119;49.130;9.218;2022-11-27T21:38:22;48.77;34.93;66.68;;
61249;Laerm;47119;49.130;9.218;2022-11-27T21:40:51;51.31;37.25;69.22;;
61249;Laerm;47119;49.130;9.218;2022-11-27T21:43:19;43.15;30.35;52.18;;
61249;Laerm;47119;49.130;9.218;2022-11-27T21:45:50;45.21;30.91;62.36;;
61249;Laerm;47119;49.130;9.218;2022-11-27T21:48:17;48.55;30.70;64.83;;
61249;Laerm;47119;49.130;9.218;2022-11-27T21:50:47;44.33;30.94;56.63;;
61249;Laerm;47119;49.130;9.218;2022-11-27T21:53:35;41.59;29.99;62.46;;
61249;Laerm;47119;49.130;9.218;2022-11-27T21:56:17;47.33;29.67;62.95;;
61249;Laerm;47119;49.130;9.218;2022-11-27T21:59:05;39.89;32.93;52.07;;
61249;Laerm;47119;49.130;9.218;2022-11-27T22:02:05;45.22;31.66;58.17;;
61249;Laerm;47119;49.130;9.218;2022-11-27T22:09:15;46.22;33.41;61.75;;
61249;Laerm;47119;49.130;9.218;2022-11-27T22:12:19;42.11;30.15;61.68;;
61249;Laerm;47119;49.130;9.218;2022-11-27T22:14:48;45.81;34.12;62.12;;
61249;Laerm;47119;49.130;9.218;2022-11-27T22:17:19;40.82;31.03;48.70;;
61249;Laerm;47119;49.130;9.218;2022-11-27T22:19:54;40.80;31.69;53.89;;
61249;Laerm;47119;49.130;9.218;2022-11-27T22:22:24;47.61;33.24;59.82;;
61249;Laerm;47119;49.130;9.218;2022-11-27T22:24:51;40.40;30.30;52.37;;
61249;Laerm;47119;49.130;9.218;2022-11-27T22:27:19;44.85;31.12;61.54;;
61249;Laerm;47119;49.130;9.218;2022-11-27T22:29:48;46.26;29.51;62.58;;
61249;Laerm;47119;49.130;9.218;2022-11-27T22:32:18;42.49;29.50;58.45;;
61249;Laerm;47119;49.130;9.218;2022-11-27T22:34:56;40.85;30.04;59.44;;
61249;Laerm;47119;49.130;9.218;2022-11-27T22:37:27;44.49;32.03;61.87;;
61249;Laerm;47119;49.130;9.218;2022-11-27T22:39:55;48.00;32.87;66.24;;
61249;Laerm;47119;49.130;9.218;2022-11-27T22:42:30;46.47;30.76;65.15;;
61249;Laerm;47119;49.130;9.218;2022-11-27T22:48:39;43.63;30.99;62.50;;
61249;Laerm;47119;49.130;9.218;2022-11-27T22:51:27;38.39;30.47;49.96;;
61249;Laerm;47119;49.130;9.218;2022-11-27T22:54:00;34.94;28.78;46.33;;
61249;Laerm;47119;49.130;9.218;2022-11-27T22:56:35;51.63;31.57;69.39;;
61249;Laerm;47119;49.130;9.218;2022-11-27T22:59:12;48.52;30.75;67.89;;
61249;Laerm;47119;49.130;9.218;2022-11-27T23:01:40;42.66;30.68;58.37;;
61249;Laerm;47119;49.130;9.218;2022-11-27T23:04:16;42.71;28.65;61.68;;
61249;Laerm;47119;49.130;9.218;2022-11-27T23:06:47;41.93;29.46;57.68;;
61249;Laerm;47119;49.130;9.218;2022-11-27T23:09:16;38.96;29.56;49.74;;
61249;Laerm;47119;49.130;9.218;2022-11-27T23:11:45;36.95;29.09;47.10;;
61249;Laerm;47119;49.130;9.218;2022-11-27T23:14:14;40.81;30.64;54.81;;
61249;Laerm;47119;49.130;9.218;2022-11-27T23:16:43;37.91;29.29;50.99;;
61249;Laerm;47119;49.130;9.218;2022-11-27T23:19:11;34.66;29.09;43.07;;
61249;Laerm;47119;49.130;9.218;2022-11-27T23:21:40;35.66;28.39;47.58;;
61249;Laerm;47119;49.130;9.218;2022-11-27T23:24:12;43.50;28.60;60.50;;
61249;Laerm;47119;49.130;9.218;2022-11-27T23:26:42;40.35;29.58;53.34;;
61249;Laerm;47119;49.130;9.218;2022-11-27T23:29:10;42.38;29.11;60.21;;
61249;Laerm;47119;49.130;9.218;2022-11-27T23:31:39;35.38;29.30;47.68;;
61249;Laerm;47119;49.130;9.218;2022-11-27T23:34:10;39.43;29.47;50.03;;
61249;Laerm;47119;49.130;9.218;2022-11-27T23:36:38;33.31;29.33;42.09;;
61249;Laerm;47119;49.130;9.218;2022-11-27T23:39:07;45.89;28.45;65.16;;
61249;Laerm;47119;49.130;9.218;2022-11-27T23:41:40;36.39;28.37;49.00;;
61249;Laerm;47119;49.130;9.218;2022-11-27T23:44:08;39.32;28.21;56.59;;
61249;Laerm;47119;49.130;9.218;2022-11-27T23:46:38;33.84;28.73;47.89;;
61249;Laerm;47119;49.130;9.218;2022-11-27T23:49:06;38.09;29.57;49.49;;
61249;Laerm;47119;49.130;9.218;2022-11-27T23:51:33;38.42;28.91;51.52;;
61249;Laerm;47119;49.130;9.218;2022-11-27T23:54:05;40.12;29.07;57.35;;
61249;Laerm;47119;49.130;9.218;2022-11-27T23:56:33;39.91;28.36;53.49;;
61249;Laerm;47119;49.130;9.218;2022-11-27T23:59:05;36.40;28.43;49.43;;
